createdAt,value
2022-11-17T00:01:18.816Z,3.60
2022-11-17T00:03:46.759Z,3.52
2022-11-17T00:06:13.536Z,3.54
2022-11-17T00:08:40.260Z,3.50
2022-11-17T00:11:06.936Z,3.40
2022-11-17T00:13:52.677Z,3.46
2022-11-17T00:16:20.718Z,3.49
2022-11-17T00:19:05.924Z,3.45
2022-11-17T00:21:32.755Z,3.53
2022-11-17T00:23:59.485Z,3.54
2022-11-17T00:26:28.387Z,3.52
2022-11-17T00:28:59.664Z,3.42
2022-11-17T00:31:46.926Z,3.49
2022-11-17T00:34:16.420Z,3.40
2022-11-17T00:36:45.435Z,3.49
2022-11-17T00:39:13.846Z,3.60
2022-11-17T00:41:40.645Z,3.66
2022-11-17T00:44:07.439Z,3.63
2022-11-17T00:46:34.840Z,3.61
2022-11-17T00:49:01.596Z,3.64
2022-11-17T00:51:29.322Z,3.70
2022-11-17T00:53:56.013Z,3.72
2022-11-17T00:56:23.294Z,3.63
2022-11-17T00:58:49.851Z,3.59
2022-11-17T01:01:16.558Z,3.61
2022-11-17T01:03:43.373Z,3.60
2022-11-17T01:06:13.394Z,3.58
2022-11-17T01:08:40.285Z,3.65
2022-11-17T01:11:12.460Z,3.70
2022-11-17T01:13:39.902Z,3.75
2022-11-17T01:16:12.498Z,3.72
2022-11-17T01:18:39.649Z,3.70
2022-11-17T01:21:12.354Z,3.75
2022-11-17T01:23:40.447Z,3.73
2022-11-17T01:26:13.026Z,3.83
2022-11-17T01:28:40.449Z,3.82
2022-11-17T01:31:10.103Z,3.82
2022-11-17T01:33:36.990Z,3.75
2022-11-17T01:36:16.472Z,3.80
2022-11-17T01:38:43.653Z,3.91
2022-11-17T01:41:18.951Z,3.96
2022-11-17T01:43:59.803Z,3.99
2022-11-17T01:46:32.899Z,4.00
2022-11-17T01:49:19.351Z,3.98
2022-11-17T01:52:03.407Z,4.00
2022-11-17T01:54:30.978Z,4.07
2022-11-17T01:57:02.477Z,4.09
2022-11-17T01:59:59.876Z,4.07
2022-11-17T02:02:26.765Z,4.05
2022-11-17T02:05:04.604Z,3.94
2022-11-17T02:07:39.457Z,3.95
2022-11-17T02:10:06.952Z,4.04
2022-11-17T02:12:35.544Z,4.07
2022-11-17T02:15:03.136Z,4.13
2022-11-17T02:17:37.276Z,4.11
2022-11-17T02:20:15.766Z,4.07
2022-11-17T02:23:03.685Z,4.12
2022-11-17T02:25:48.392Z,4.18
2022-11-17T02:28:22.475Z,4.25
2022-11-17T02:31:13.563Z,4.25
2022-11-17T02:33:52.545Z,4.32
2022-11-17T02:36:34.476Z,4.22
2022-11-17T02:39:15.212Z,4.31
2022-11-17T02:41:46.792Z,4.32
2022-11-17T02:44:40.084Z,4.22
2022-11-17T02:47:15.745Z,4.16
2022-11-17T02:49:49.805Z,4.19
2022-11-17T02:52:18.204Z,4.22
2022-11-17T02:54:44.829Z,4.23
2022-11-17T02:57:47.085Z,4.20
2022-11-17T03:00:16.504Z,4.09
2022-11-17T03:03:17.213Z,4.17
2022-11-17T03:06:04.358Z,4.24
2022-11-17T03:08:38.832Z,4.18
2022-11-17T03:11:07.225Z,4.19
2022-11-17T03:13:40.557Z,4.17
2022-11-17T03:16:16.924Z,4.15
2022-11-17T03:19:16.945Z,4.26
2022-11-17T03:22:01.734Z,4.28
2022-11-17T03:24:30.623Z,4.32
2022-11-17T03:27:04.248Z,4.35
2022-11-17T03:29:32.162Z,4.26
2022-11-17T03:32:02.114Z,4.36
2022-11-17T03:34:31.984Z,4.39
2022-11-17T03:37:02.695Z,4.42
2022-11-17T03:39:38.154Z,4.45
2022-11-17T03:42:24.484Z,4.46
2022-11-17T03:44:55.165Z,4.47
2022-11-17T03:47:25.362Z,4.43
2022-11-17T03:49:51.951Z,4.41
2022-11-17T03:52:19.057Z,4.39
2022-11-17T03:54:45.794Z,4.40
2022-11-17T03:57:12.421Z,4.40
2022-11-17T03:59:52.705Z,4.40
2022-11-17T04:02:21.083Z,4.45
2022-11-17T04:05:05.884Z,4.46
2022-11-17T04:07:44.483Z,4.48
2022-11-17T04:10:15.904Z,4.47
2022-11-17T04:13:01.293Z,4.55
2022-11-17T04:15:47.024Z,4.51
2022-11-17T04:18:14.452Z,4.48
2022-11-17T04:20:41.539Z,4.53
2022-11-17T04:23:15.831Z,4.46
2022-11-17T04:26:02.314Z,4.54
2022-11-17T04:28:39.056Z,4.55
2022-11-17T04:31:11.393Z,4.54
2022-11-17T04:33:40.044Z,4.47
2022-11-17T04:36:07.202Z,4.48
2022-11-17T04:38:33.916Z,4.41
2022-11-17T04:41:24.754Z,4.35
2022-11-17T04:43:51.963Z,4.39
2022-11-17T04:46:19.814Z,4.38
2022-11-17T04:48:47.640Z,4.38
2022-11-17T04:51:15.659Z,4.39
2022-11-17T04:53:44.507Z,4.38
2022-11-17T04:56:11.401Z,4.41
2022-11-17T04:58:38.103Z,4.38
2022-11-17T05:01:14.022Z,4.36
2022-11-17T05:03:48.783Z,4.38
2022-11-17T05:06:22.253Z,4.35
2022-11-17T05:08:49.832Z,4.39
2022-11-17T05:11:36.434Z,4.38
2022-11-17T05:14:03.657Z,4.33
2022-11-17T05:16:49.043Z,4.35
2022-11-17T05:19:18.134Z,4.36
2022-11-17T05:21:44.795Z,4.46
2022-11-17T05:24:11.684Z,4.40
2022-11-17T05:26:38.733Z,4.44
2022-11-17T05:29:06.421Z,4.41
2022-11-17T05:31:33.617Z,4.35
2022-11-17T05:34:01.163Z,4.34
2022-11-17T05:36:28.565Z,4.33
2022-11-17T05:38:55.734Z,4.30
2022-11-17T05:41:23.074Z,4.27
2022-11-17T05:43:50.560Z,4.33
2022-11-17T05:46:18.599Z,4.33
2022-11-17T05:48:46.194Z,4.36
2022-11-17T05:51:13.159Z,4.35
2022-11-17T05:53:39.810Z,4.33
2022-11-17T05:56:28.456Z,4.34
2022-11-17T05:59:02.243Z,4.20
2022-11-17T06:01:30.250Z,4.31
2022-11-17T06:04:00.288Z,4.34
2022-11-17T06:06:27.691Z,4.35
2022-11-17T06:08:54.502Z,4.22
2022-11-17T06:11:21.201Z,4.25
2022-11-17T06:13:48.022Z,4.24
2022-11-17T06:16:16.211Z,4.27
2022-11-17T06:18:50.009Z,4.25
2022-11-17T06:21:17.388Z,4.24
2022-11-17T06:23:45.243Z,4.21
2022-11-17T06:26:12.643Z,4.26
2022-11-17T06:28:41.354Z,4.31
2022-11-17T06:31:08.286Z,4.34
2022-11-17T06:33:36.459Z,4.38
2022-11-17T06:36:04.598Z,4.35
2022-11-17T06:38:33.629Z,4.41
2022-11-17T06:41:00.489Z,4.40
2022-11-17T06:43:27.295Z,4.47
2022-11-17T06:45:54.130Z,4.39
2022-11-17T06:48:27.216Z,4.32
2022-11-17T06:50:54.972Z,4.34
2022-11-17T06:53:26.697Z,4.37
2022-11-17T06:56:05.514Z,4.44
2022-11-17T06:58:33.298Z,4.43
2022-11-17T07:01:08.049Z,4.47
2022-11-17T07:03:37.093Z,4.48
2022-11-17T07:06:05.433Z,4.44
2022-11-17T07:08:33.173Z,4.53
2022-11-17T07:11:11.570Z,4.62
2022-11-17T07:13:38.733Z,4.53
2022-11-17T07:16:07.631Z,4.64
2022-11-17T07:18:34.964Z,4.68
2022-11-17T07:21:06.734Z,4.67
2022-11-17T07:23:34.810Z,4.65
2022-11-17T07:26:01.921Z,4.66
2022-11-17T07:28:29.459Z,4.67
2022-11-17T07:30:56.892Z,4.77
2022-11-17T07:33:23.649Z,4.85
2022-11-17T07:35:50.853Z,4.88
2022-11-17T07:38:17.585Z,4.92
2022-11-17T07:40:44.347Z,4.69
2022-11-17T07:43:11.969Z,4.86
2022-11-17T07:45:48.605Z,4.95
2022-11-17T07:48:15.411Z,4.94
2022-11-17T07:50:42.150Z,5.01
2022-11-17T07:53:09.000Z,5.02
2022-11-17T07:55:35.813Z,4.94
2022-11-17T07:58:02.686Z,4.94
2022-11-17T08:00:31.112Z,4.85
2022-11-17T08:03:04.528Z,4.91
2022-11-17T08:05:39.879Z,4.91
2022-11-17T08:08:10.142Z,5.10
2022-11-17T08:10:37.045Z,4.95
2022-11-17T08:13:04.121Z,4.93
2022-11-17T08:15:31.381Z,4.81
2022-11-17T08:18:00.147Z,4.89
2022-11-17T08:20:29.392Z,4.91
2022-11-17T08:22:56.814Z,4.94
2022-11-17T08:25:26.771Z,5.03
2022-11-17T08:27:58.126Z,5.14
2022-11-17T08:30:26.098Z,5.20
2022-11-17T08:32:53.829Z,5.18
2022-11-17T08:35:23.234Z,5.16
2022-11-17T08:37:50.182Z,5.35
2022-11-17T08:40:18.407Z,5.17
2022-11-17T08:42:45.573Z,5.14
2022-11-17T08:45:12.921Z,5.18
2022-11-17T08:47:40.040Z,5.32
2022-11-17T08:50:07.687Z,5.30
2022-11-17T08:52:34.680Z,5.33
2022-11-17T08:55:02.310Z,5.25
2022-11-17T08:57:32.857Z,5.37
2022-11-17T09:00:00.125Z,5.15
2022-11-17T09:02:26.935Z,5.25
2022-11-17T09:04:54.092Z,5.33
2022-11-17T09:07:20.970Z,5.37
2022-11-17T09:09:48.777Z,5.42
2022-11-17T09:12:16.159Z,5.43
2022-11-17T09:14:42.964Z,5.45
2022-11-17T09:17:09.925Z,5.37
2022-11-17T09:19:36.824Z,5.29
2022-11-17T09:22:03.526Z,5.41
2022-11-17T09:24:30.378Z,5.36
2022-11-17T09:26:57.650Z,5.30
2022-11-17T09:29:24.364Z,5.39
2022-11-17T09:31:51.258Z,5.51
2022-11-17T09:34:18.193Z,5.70
2022-11-17T09:36:45.004Z,5.90
2022-11-17T09:39:11.761Z,5.95
2022-11-17T09:41:47.012Z,5.83
2022-11-17T09:44:28.494Z,5.74
2022-11-17T09:47:04.191Z,5.58
2022-11-17T09:49:36.213Z,5.55
2022-11-17T09:52:23.123Z,5.62
2022-11-17T09:54:54.224Z,5.39
2022-11-17T09:57:43.368Z,5.43
2022-11-17T10:00:19.720Z,5.54
2022-11-17T10:02:47.866Z,5.84
2022-11-17T10:05:33.663Z,5.95
2022-11-17T10:08:08.387Z,6.03
2022-11-17T10:10:44.870Z,6.30
2022-11-17T10:13:29.447Z,6.52
2022-11-17T10:16:06.095Z,6.96
2022-11-17T10:18:38.087Z,7.29
2022-11-17T10:21:06.955Z,6.94
2022-11-17T10:23:46.837Z,6.69
2022-11-17T10:26:15.310Z,6.58
2022-11-17T10:28:42.126Z,6.45
2022-11-17T10:31:17.236Z,6.38
2022-11-17T10:33:46.646Z,6.32
2022-11-17T10:36:22.078Z,6.27
2022-11-17T10:38:51.625Z,6.16
2022-11-17T10:41:37.498Z,6.23
2022-11-17T10:44:04.464Z,6.42
2022-11-17T10:46:40.619Z,6.54
2022-11-17T10:49:27.328Z,6.58
2022-11-17T10:52:16.957Z,6.73
2022-11-17T10:54:44.324Z,6.87
2022-11-17T10:57:20.694Z,7.00
2022-11-17T10:59:57.784Z,7.09
2022-11-17T11:02:37.626Z,7.21
2022-11-17T11:05:18.053Z,7.46
2022-11-17T11:07:44.880Z,7.51
2022-11-17T11:10:20.657Z,7.66
2022-11-17T11:12:50.443Z,7.43
2022-11-17T11:15:21.386Z,7.72
2022-11-17T11:17:48.296Z,7.71
2022-11-17T11:20:16.853Z,7.71
2022-11-17T11:23:16.119Z,8.46
2022-11-17T11:26:27.664Z,8.65
2022-11-17T11:29:00.427Z,9.22
2022-11-17T11:31:45.733Z,9.38
2022-11-17T11:34:35.095Z,9.20
2022-11-17T11:37:09.908Z,9.13
2022-11-17T11:39:39.752Z,9.53
2022-11-17T11:42:29.266Z,8.85
2022-11-17T11:45:24.431Z,9.61
2022-11-17T11:48:05.025Z,9.97
2022-11-17T11:50:48.465Z,9.79
2022-11-17T11:53:31.435Z,9.80
2022-11-17T11:56:20.694Z,9.92
2022-11-17T11:58:50.116Z,9.73
2022-11-17T12:01:19.014Z,9.79
2022-11-17T12:03:58.543Z,9.31
2022-11-17T12:06:41.884Z,9.23
2022-11-17T12:09:11.525Z,9.37
2022-11-17T12:12:00.915Z,9.16
2022-11-17T12:14:33.143Z,9.44
2022-11-17T12:17:26.463Z,9.30
2022-11-17T12:20:07.581Z,9.69
2022-11-17T12:22:37.333Z,8.88
2022-11-17T12:25:14.428Z,8.65
2022-11-17T12:27:43.993Z,8.55
2022-11-17T12:30:36.813Z,8.80
2022-11-17T12:33:08.753Z,9.09
2022-11-17T12:35:37.546Z,9.27
2022-11-17T12:38:20.196Z,9.58
2022-11-17T12:40:54.254Z,9.37
2022-11-17T12:43:23.562Z,9.49
2022-11-17T12:45:59.227Z,9.36
2022-11-17T12:48:34.856Z,9.10
2022-11-17T12:51:20.804Z,8.78
2022-11-17T12:53:50.426Z,8.82
2022-11-17T12:56:37.432Z,8.81
2022-11-17T12:59:42.053Z,8.95
2022-11-17T13:02:26.989Z,8.49
2022-11-17T13:05:00.381Z,8.48
2022-11-17T13:07:27.530Z,8.54
2022-11-17T13:09:59.273Z,8.78
2022-11-17T13:12:31.214Z,8.93
2022-11-17T13:15:04.805Z,8.73
2022-11-17T13:17:39.017Z,8.56
2022-11-17T13:20:19.632Z,8.53
2022-11-17T13:23:04.762Z,8.30
2022-11-17T13:25:31.642Z,8.08
2022-11-17T13:28:04.206Z,8.02
2022-11-17T13:30:32.823Z,8.08
2022-11-17T13:33:01.541Z,8.04
2022-11-17T13:35:33.964Z,8.09
2022-11-17T13:38:19.627Z,8.03
2022-11-17T13:40:47.724Z,8.04
2022-11-17T13:43:20.736Z,8.18
2022-11-17T13:45:48.966Z,7.93
2022-11-17T13:48:35.572Z,8.07
2022-11-17T13:51:15.513Z,8.06
2022-11-17T13:53:44.382Z,8.01
2022-11-17T13:56:26.671Z,7.83
2022-11-17T13:58:53.852Z,7.86
2022-11-17T14:01:25.440Z,7.77
2022-11-17T14:03:52.567Z,7.92
2022-11-17T14:06:19.455Z,7.90
2022-11-17T14:09:03.900Z,7.80
2022-11-17T14:11:30.701Z,7.82
2022-11-17T14:14:01.445Z,7.99
2022-11-17T14:16:29.740Z,7.98
2022-11-17T14:19:15.632Z,7.92
2022-11-17T14:22:22.499Z,7.80
2022-11-17T14:24:51.972Z,7.92
2022-11-17T14:27:28.085Z,8.00
2022-11-17T14:29:55.355Z,7.98
2022-11-17T14:32:22.071Z,7.89
2022-11-17T14:34:48.815Z,7.87
2022-11-17T14:37:15.733Z,7.82
2022-11-17T14:39:42.590Z,7.87
2022-11-17T14:42:09.533Z,7.84
2022-11-17T14:44:36.362Z,7.80
2022-11-17T14:47:03.515Z,7.78
2022-11-17T14:49:30.510Z,7.74
2022-11-17T14:51:59.339Z,7.64
2022-11-17T14:54:26.603Z,7.59
2022-11-17T14:56:53.683Z,7.42
2022-11-17T14:59:20.652Z,7.49
2022-11-17T15:01:47.523Z,7.38
2022-11-17T15:04:48.118Z,7.33
2022-11-17T15:07:03.415Z,7.39
2022-11-17T15:09:30.312Z,7.35
2022-11-17T15:11:57.150Z,7.36
2022-11-17T15:14:23.982Z,7.38
2022-11-17T15:16:50.771Z,7.31
2022-11-17T15:19:17.644Z,7.25
2022-11-17T15:21:44.686Z,7.23
2022-11-17T15:24:11.465Z,7.35
2022-11-17T15:26:38.382Z,7.23
2022-11-17T15:29:05.272Z,7.36
2022-11-17T15:31:32.126Z,7.36
2022-11-17T15:33:58.812Z,7.40
2022-11-17T15:36:25.694Z,7.36
2022-11-17T15:38:53.495Z,7.27
2022-11-17T15:41:21.305Z,7.27
2022-11-17T15:43:48.103Z,7.25
2022-11-17T15:46:17.440Z,7.17
2022-11-17T15:48:46.506Z,7.12
2022-11-17T15:51:18.032Z,7.08
2022-11-17T15:53:46.461Z,7.09
2022-11-17T15:56:21.587Z,7.09
2022-11-17T15:58:49.467Z,7.06
2022-11-17T16:01:39.696Z,6.99
2022-11-17T16:04:17.469Z,6.95
2022-11-17T16:06:46.011Z,6.98
2022-11-17T16:09:13.582Z,6.99
2022-11-17T16:11:40.864Z,6.95
2022-11-17T16:14:08.277Z,6.95
2022-11-17T16:16:37.225Z,6.93
2022-11-17T16:19:04.574Z,7.05
2022-11-17T16:21:31.387Z,7.09
2022-11-17T16:24:00.885Z,6.95
2022-11-17T16:26:28.829Z,6.86
2022-11-17T16:28:59.710Z,6.90
2022-11-17T16:31:29.047Z,6.78
2022-11-17T16:33:57.922Z,6.73
2022-11-17T16:36:29.015Z,6.80
2022-11-17T16:39:01.670Z,6.76
2022-11-17T16:41:34.777Z,6.76
2022-11-17T16:44:02.217Z,6.85
2022-11-17T16:46:30.968Z,6.88
2022-11-17T16:49:05.286Z,6.89
2022-11-17T16:51:32.685Z,6.88
2022-11-17T16:54:05.113Z,6.89
2022-11-17T16:56:32.882Z,6.87
2022-11-17T16:59:00.304Z,6.86
2022-11-17T17:01:32.633Z,6.87
2022-11-17T17:04:01.646Z,6.86
2022-11-17T17:06:28.686Z,6.86
2022-11-17T17:08:56.735Z,6.91
2022-11-17T17:11:23.732Z,6.88
2022-11-17T17:13:50.904Z,6.94
2022-11-17T17:16:19.194Z,6.89
2022-11-17T17:18:46.243Z,6.89
2022-11-17T17:21:18.852Z,6.85
2022-11-17T17:23:45.950Z,6.86
2022-11-17T17:26:17.497Z,6.75
2022-11-17T17:28:45.846Z,6.83
2022-11-17T17:31:19.664Z,6.79
2022-11-17T17:33:48.511Z,6.83
2022-11-17T17:36:18.003Z,6.80
2022-11-17T17:38:46.815Z,6.76
2022-11-17T17:41:20.191Z,6.72
2022-11-17T17:43:47.650Z,6.72
2022-11-17T17:46:16.984Z,6.67
2022-11-17T17:48:45.071Z,6.65
2022-11-17T17:51:16.803Z,6.59
2022-11-17T17:53:44.220Z,6.57
2022-11-17T17:56:14.573Z,6.66
2022-11-17T17:58:42.331Z,6.71
2022-11-17T18:01:11.954Z,6.52
2022-11-17T18:03:39.941Z,6.49
2022-11-17T18:06:07.523Z,6.38
2022-11-17T18:08:35.739Z,6.36
2022-11-17T18:11:08.125Z,6.21
2022-11-17T18:13:36.821Z,6.19
2022-11-17T18:16:06.462Z,6.09
2022-11-17T18:18:34.392Z,5.99
2022-11-17T18:21:09.275Z,5.84
2022-11-17T18:23:37.293Z,5.77
2022-11-17T18:26:16.187Z,5.69
2022-11-17T18:28:45.395Z,5.59
2022-11-17T18:31:12.104Z,5.68
2022-11-17T18:33:38.915Z,5.73
2022-11-17T18:36:07.878Z,5.75
2022-11-17T18:38:36.079Z,5.72
2022-11-17T18:41:08.193Z,5.70
2022-11-17T18:43:35.630Z,5.71
2022-11-17T18:46:10.612Z,5.61
2022-11-17T18:48:39.676Z,5.58
2022-11-17T18:51:23.300Z,5.51
2022-11-17T18:53:51.804Z,5.33
2022-11-17T18:56:23.832Z,5.28
2022-11-17T18:58:50.864Z,5.34
2022-11-17T19:01:19.668Z,5.26
2022-11-17T19:03:48.444Z,5.19
2022-11-17T19:06:16.489Z,5.17
2022-11-17T19:08:43.696Z,5.14
2022-11-17T19:11:11.840Z,5.13
2022-11-17T19:13:40.190Z,5.10
2022-11-17T19:16:16.764Z,5.05
2022-11-17T19:18:45.081Z,4.88
2022-11-17T19:21:14.275Z,4.83
2022-11-17T19:23:43.475Z,4.92
2022-11-17T19:26:14.353Z,4.95
2022-11-17T19:28:41.419Z,4.94
2022-11-17T19:31:13.024Z,4.84
2022-11-17T19:33:40.917Z,4.90
2022-11-17T19:36:12.785Z,4.71
2022-11-17T19:38:41.907Z,4.65
2022-11-17T19:41:14.153Z,4.65
2022-11-17T19:43:45.184Z,4.60
2022-11-17T19:46:17.273Z,4.41
2022-11-17T19:48:44.852Z,4.29
2022-11-17T19:51:16.165Z,4.21
2022-11-17T19:53:43.057Z,4.12
2022-11-17T19:56:10.162Z,4.11
2022-11-17T19:58:36.872Z,4.05
2022-11-17T20:01:10.126Z,4.06
2022-11-17T20:03:37.174Z,3.83
2022-11-17T20:06:04.124Z,3.79
2022-11-17T20:08:31.615Z,3.86
2022-11-17T20:11:07.561Z,3.95
2022-11-17T20:13:36.097Z,3.98
2022-11-17T20:16:12.522Z,3.89
2022-11-17T20:18:44.821Z,3.88
2022-11-17T20:21:16.647Z,3.67
2022-11-17T20:23:53.871Z,3.78
2022-11-17T20:26:31.389Z,3.91
2022-11-17T20:29:06.276Z,3.98
2022-11-17T20:31:41.198Z,3.94
2022-11-17T20:34:15.989Z,3.89
2022-11-17T20:36:51.159Z,3.78
2022-11-17T20:39:25.794Z,3.74
2022-11-17T20:41:53.070Z,3.72
2022-11-17T20:44:26.919Z,3.80
2022-11-17T20:46:59.876Z,3.91
2022-11-17T20:49:32.099Z,3.93
2022-11-17T20:51:58.962Z,3.96
2022-11-17T20:54:33.710Z,3.96
2022-11-17T20:57:17.521Z,3.99
2022-11-17T20:59:50.427Z,3.83
2022-11-17T21:02:17.699Z,3.83
2022-11-17T21:04:46.794Z,3.87
2022-11-17T21:07:17.278Z,3.89
2022-11-17T21:09:44.395Z,3.81
2022-11-17T21:12:14.004Z,3.76
2022-11-17T21:14:43.385Z,3.72
2022-11-17T21:17:33.799Z,3.68
2022-11-17T21:20:00.695Z,3.69
2022-11-17T21:22:32.246Z,3.65
2022-11-17T21:25:04.641Z,3.53
2022-11-17T21:27:34.959Z,3.54
2022-11-17T21:30:01.618Z,3.54
2022-11-17T21:32:28.261Z,3.68
2022-11-17T21:35:00.511Z,3.67
2022-11-17T21:37:32.844Z,3.57
2022-11-17T21:40:02.644Z,3.52
2022-11-17T21:42:34.162Z,3.61
2022-11-17T21:45:01.451Z,3.61
2022-11-17T21:47:30.625Z,3.54
2022-11-17T21:49:57.249Z,3.53
2022-11-17T21:52:23.806Z,3.59
2022-11-17T21:54:50.465Z,3.66
2022-11-17T21:57:17.100Z,3.46
2022-11-17T21:59:43.738Z,3.30
2022-11-17T22:02:10.481Z,3.30
2022-11-17T22:04:37.109Z,3.44
2022-11-17T22:07:03.785Z,3.44
2022-11-17T22:09:30.489Z,3.42
2022-11-17T22:11:58.115Z,3.14
2022-11-17T22:14:25.198Z,3.26
2022-11-17T22:16:53.592Z,3.33
2022-11-17T22:19:21.726Z,3.33
2022-11-17T22:21:50.059Z,3.22
2022-11-17T22:24:17.311Z,3.27
2022-11-17T22:26:44.248Z,3.30
2022-11-17T22:29:19.703Z,3.29
2022-11-17T22:31:48.599Z,3.36
2022-11-17T22:34:15.986Z,3.44
2022-11-17T22:36:42.676Z,3.42
2022-11-17T22:39:09.511Z,3.44
2022-11-17T22:41:36.187Z,3.50
2022-11-17T22:44:03.062Z,3.53
2022-11-17T22:46:29.816Z,3.61
2022-11-17T22:48:56.503Z,3.55
2022-11-17T22:51:43.093Z,3.46
2022-11-17T22:54:09.819Z,3.45
2022-11-17T22:56:36.472Z,3.51
2022-11-17T22:59:03.312Z,3.60
2022-11-17T23:01:29.935Z,3.54
2022-11-17T23:03:56.555Z,3.55
2022-11-17T23:06:24.268Z,3.47
2022-11-17T23:08:51.096Z,3.44
2022-11-17T23:14:06.039Z,3.41
2022-11-17T23:16:33.277Z,3.31
2022-11-17T23:19:00.189Z,3.29
2022-11-17T23:21:26.944Z,3.41
2022-11-17T23:23:53.667Z,3.32
2022-11-17T23:26:20.470Z,3.30
2022-11-17T23:28:47.168Z,3.39
2022-11-17T23:31:15.734Z,3.58
2022-11-17T23:33:47.027Z,3.52
2022-11-17T23:36:16.307Z,3.57
2022-11-17T23:38:43.373Z,3.56
2022-11-17T23:41:12.291Z,3.50
2022-11-17T23:43:39.001Z,3.53
2022-11-17T23:46:10.653Z,3.48
2022-11-17T23:48:37.470Z,3.68
2022-11-17T23:51:06.140Z,3.71
2022-11-17T23:53:34.446Z,3.75
2022-11-17T23:56:01.661Z,3.78
2022-11-17T23:58:29.072Z,3.81
